sensor_id;sensor_type;location;lat;lon;timestamp;P1;durP1;ratioP1;P2;durP2;ratioP2
14734;SDS011;7458;49.002;8.472;2023-06-04T00:01:44;1211.38;;;999.90;;
14734;SDS011;7458;49.002;8.472;2023-06-04T00:04:11;1310.03;;;999.90;;
14734;SDS011;7458;49.002;8.472;2023-06-04T00:06:37;1238.03;;;999.90;;
14734;SDS011;7458;49.002;8.472;2023-06-04T00:09:02;1308.70;;;999.90;;
14734;SDS011;7458;49.002;8.472;2023-06-04T00:11:28;1308.30;;;999.90;;
14734;SDS011;7458;49.002;8.472;2023-06-04T00:13:54;1309.57;;;999.90;;
14734;SDS011;7458;49.002;8.472;2023-06-04T00:16:20;1316.72;;;999.90;;
14734;SDS011;7458;49.002;8.472;2023-06-04T00:18:45;1242.82;;;999.90;;
14734;SDS011;7458;49.002;8.472;2023-06-04T00:21:11;1309.55;;;999.90;;
14734;SDS011;7458;49.002;8.472;2023-06-04T00:23:37;1321.93;;;999.90;;
14734;SDS011;7458;49.002;8.472;2023-06-04T00:26:02;1229.03;;;999.90;;
14734;SDS011;7458;49.002;8.472;2023-06-04T00:28:29;1244.43;;;999.90;;
14734;SDS011;7458;49.002;8.472;2023-06-04T00:30:54;1232.18;;;999.90;;
14734;SDS011;7458;49.002;8.472;2023-06-04T00:33:20;1310.00;;;999.90;;
14734;SDS011;7458;49.002;8.472;2023-06-04T00:35:46;1330.93;;;999.90;;
14734;SDS011;7458;49.002;8.472;2023-06-04T00:38:12;1250.72;;;999.90;;
14734;SDS011;7458;49.002;8.472;2023-06-04T00:40:38;1237.13;;;999.90;;
14734;SDS011;7458;49.002;8.472;2023-06-04T00:43:03;1259.50;;;999.90;;
14734;SDS011;7458;49.002;8.472;2023-06-04T00:45:30;1259.63;;;999.90;;
14734;SDS011;7458;49.002;8.472;2023-06-04T00:47:56;1329.60;;;999.90;;
14734;SDS011;7458;49.002;8.472;2023-06-04T00:50:23;1340.18;;;999.90;;
14734;SDS011;7458;49.002;8.472;2023-06-04T00:52:49;1261.07;;;999.90;;
14734;SDS011;7458;49.002;8.472;2023-06-04T00:55:16;1274.75;;;999.90;;
14734;SDS011;7458;49.002;8.472;2023-06-04T00:57:43;1325.88;;;999.90;;
14734;SDS011;7458;49.002;8.472;2023-06-04T01:00:09;1264.07;;;999.90;;
14734;SDS011;7458;49.002;8.472;2023-06-04T01:02:37;1334.38;;;999.90;;
14734;SDS011;7458;49.002;8.472;2023-06-04T01:05:26;1271.18;;;999.90;;
14734;SDS011;7458;49.002;8.472;2023-06-04T01:08:07;1339.85;;;999.90;;
14734;SDS011;7458;49.002;8.472;2023-06-04T01:10:34;1278.20;;;999.90;;
14734;SDS011;7458;49.002;8.472;2023-06-04T01:13:02;1332.65;;;999.90;;
14734;SDS011;7458;49.002;8.472;2023-06-04T01:15:28;1281.15;;;999.90;;
14734;SDS011;7458;49.002;8.472;2023-06-04T01:17:58;1267.65;;;999.90;;
14734;SDS011;7458;49.002;8.472;2023-06-04T01:26:29;1271.07;;;999.90;;
14734;SDS011;7458;49.002;8.472;2023-06-04T01:28:57;1351.38;;;999.90;;
14734;SDS011;7458;49.002;8.472;2023-06-04T01:31:24;1338.85;;;999.90;;
14734;SDS011;7458;49.002;8.472;2023-06-04T01:33:54;1346.25;;;999.90;;
14734;SDS011;7458;49.002;8.472;2023-06-04T01:36:24;1282.85;;;999.90;;
14734;SDS011;7458;49.002;8.472;2023-06-04T01:38:50;1348.72;;;999.90;;
14734;SDS011;7458;49.002;8.472;2023-06-04T01:41:16;1338.70;;;999.90;;
14734;SDS011;7458;49.002;8.472;2023-06-04T01:43:42;1353.47;;;999.90;;
14734;SDS011;7458;49.002;8.472;2023-06-04T01:46:08;1339.55;;;999.90;;
14734;SDS011;7458;49.002;8.472;2023-06-04T01:48:34;1286.32;;;999.90;;
14734;SDS011;7458;49.002;8.472;2023-06-04T01:51:01;1291.40;;;999.90;;
14734;SDS011;7458;49.002;8.472;2023-06-04T01:53:27;1272.38;;;999.90;;
14734;SDS011;7458;49.002;8.472;2023-06-04T01:55:53;1302.03;;;999.90;;
14734;SDS011;7458;49.002;8.472;2023-06-04T01:58:19;1320.40;;;999.90;;
14734;SDS011;7458;49.002;8.472;2023-06-04T02:00:48;1333.38;;;999.90;;
14734;SDS011;7458;49.002;8.472;2023-06-04T02:03:15;1334.60;;;999.90;;
14734;SDS011;7458;49.002;8.472;2023-06-04T02:05:41;1297.22;;;999.90;;
14734;SDS011;7458;49.002;8.472;2023-06-04T02:08:09;1338.97;;;999.90;;
14734;SDS011;7458;49.002;8.472;2023-06-04T02:10:36;1338.22;;;999.90;;
14734;SDS011;7458;49.002;8.472;2023-06-04T02:13:02;1292.45;;;999.90;;
14734;SDS011;7458;49.002;8.472;2023-06-04T02:15:29;1292.93;;;999.90;;
14734;SDS011;7458;49.002;8.472;2023-06-04T02:17:57;1345.13;;;999.90;;
14734;SDS011;7458;49.002;8.472;2023-06-04T02:20:41;1350.82;;;999.90;;
14734;SDS011;7458;49.002;8.472;2023-06-04T02:23:09;1304.82;;;999.90;;
14734;SDS011;7458;49.002;8.472;2023-06-04T02:25:36;1290.28;;;999.90;;
14734;SDS011;7458;49.002;8.472;2023-06-04T02:28:02;1344.18;;;999.90;;
14734;SDS011;7458;49.002;8.472;2023-06-04T02:30:27;1326.53;;;999.90;;
14734;SDS011;7458;49.002;8.472;2023-06-04T02:32:53;1339.85;;;999.90;;
14734;SDS011;7458;49.002;8.472;2023-06-04T02:35:20;1331.22;;;999.90;;
14734;SDS011;7458;49.002;8.472;2023-06-04T02:37:48;1296.75;;;999.90;;
14734;SDS011;7458;49.002;8.472;2023-06-04T02:40:14;1280.50;;;999.90;;
14734;SDS011;7458;49.002;8.472;2023-06-04T02:42:40;1339.07;;;999.90;;
14734;SDS011;7458;49.002;8.472;2023-06-04T02:45:07;1292.95;;;999.90;;
14734;SDS011;7458;49.002;8.472;2023-06-04T02:47:33;1283.32;;;999.90;;
14734;SDS011;7458;49.002;8.472;2023-06-04T02:49:59;1338.50;;;999.90;;
14734;SDS011;7458;49.002;8.472;2023-06-04T02:52:25;1321.00;;;999.90;;
14734;SDS011;7458;49.002;8.472;2023-06-04T02:54:51;1332.10;;;999.90;;
14734;SDS011;7458;49.002;8.472;2023-06-04T02:57:16;1311.93;;;999.90;;
14734;SDS011;7458;49.002;8.472;2023-06-04T02:59:42;1278.68;;;999.90;;
14734;SDS011;7458;49.002;8.472;2023-06-04T03:02:08;1269.65;;;999.90;;
14734;SDS011;7458;49.002;8.472;2023-06-04T03:04:35;1270.82;;;999.90;;
14734;SDS011;7458;49.002;8.472;2023-06-04T03:07:01;1273.97;;;999.90;;
14734;SDS011;7458;49.002;8.472;2023-06-04T03:09:28;1314.45;;;999.90;;
14734;SDS011;7458;49.002;8.472;2023-06-04T03:12:02;1272.88;;;999.90;;
14734;SDS011;7458;49.002;8.472;2023-06-04T03:14:29;1310.35;;;999.90;;
14734;SDS011;7458;49.002;8.472;2023-06-04T03:17:01;1277.25;;;999.90;;
14734;SDS011;7458;49.002;8.472;2023-06-04T03:19:33;1312.15;;;999.90;;
14734;SDS011;7458;49.002;8.472;2023-06-04T03:22:00;1275.93;;;999.90;;
14734;SDS011;7458;49.002;8.472;2023-06-04T03:24:30;1255.07;;;999.90;;
14734;SDS011;7458;49.002;8.472;2023-06-04T03:27:06;1272.80;;;999.90;;
14734;SDS011;7458;49.002;8.472;2023-06-04T03:29:35;1302.80;;;999.90;;
14734;SDS011;7458;49.002;8.472;2023-06-04T03:32:02;1265.55;;;999.90;;
14734;SDS011;7458;49.002;8.472;2023-06-04T03:34:28;1307.63;;;999.90;;
14734;SDS011;7458;49.002;8.472;2023-06-04T03:36:57;1256.47;;;999.90;;
14734;SDS011;7458;49.002;8.472;2023-06-04T03:39:24;1282.10;;;999.90;;
14734;SDS011;7458;49.002;8.472;2023-06-04T03:41:50;1318.40;;;999.90;;
14734;SDS011;7458;49.002;8.472;2023-06-04T03:44:16;1294.65;;;999.90;;
14734;SDS011;7458;49.002;8.472;2023-06-04T03:46:43;1297.63;;;999.90;;
14734;SDS011;7458;49.002;8.472;2023-06-04T03:49:09;1324.47;;;999.90;;
14734;SDS011;7458;49.002;8.472;2023-06-04T03:51:40;1313.57;;;999.90;;
14734;SDS011;7458;49.002;8.472;2023-06-04T03:54:06;1243.50;;;999.90;;
14734;SDS011;7458;49.002;8.472;2023-06-04T03:56:32;1249.63;;;999.90;;
14734;SDS011;7458;49.002;8.472;2023-06-04T03:58:58;1249.70;;;999.90;;
14734;SDS011;7458;49.002;8.472;2023-06-04T04:01:24;1315.10;;;999.90;;
14734;SDS011;7458;49.002;8.472;2023-06-04T04:03:50;1256.97;;;999.90;;
14734;SDS011;7458;49.002;8.472;2023-06-04T04:06:18;1318.70;;;999.90;;
14734;SDS011;7458;49.002;8.472;2023-06-04T04:08:44;1258.90;;;999.90;;
14734;SDS011;7458;49.002;8.472;2023-06-04T04:11:13;1331.03;;;999.90;;
14734;SDS011;7458;49.002;8.472;2023-06-04T04:13:40;1333.80;;;999.90;;
14734;SDS011;7458;49.002;8.472;2023-06-04T04:16:06;1250.60;;;999.90;;
14734;SDS011;7458;49.002;8.472;2023-06-04T04:18:32;1264.32;;;999.90;;
14734;SDS011;7458;49.002;8.472;2023-06-04T04:21:00;1266.43;;;999.90;;
14734;SDS011;7458;49.002;8.472;2023-06-04T04:23:26;1253.65;;;999.90;;
14734;SDS011;7458;49.002;8.472;2023-06-04T04:25:53;1263.03;;;999.90;;
14734;SDS011;7458;49.002;8.472;2023-06-04T04:28:21;1335.03;;;999.90;;
14734;SDS011;7458;49.002;8.472;2023-06-04T04:30:47;1342.93;;;999.90;;
14734;SDS011;7458;49.002;8.472;2023-06-04T04:33:14;1271.68;;;999.90;;
14734;SDS011;7458;49.002;8.472;2023-06-04T04:35:41;1335.70;;;999.90;;
14734;SDS011;7458;49.002;8.472;2023-06-04T04:38:10;1289.43;;;999.90;;
14734;SDS011;7458;49.002;8.472;2023-06-04T04:40:36;1335.20;;;999.90;;
14734;SDS011;7458;49.002;8.472;2023-06-04T04:43:02;1343.45;;;999.90;;
14734;SDS011;7458;49.002;8.472;2023-06-04T04:45:28;1272.45;;;999.90;;
14734;SDS011;7458;49.002;8.472;2023-06-04T04:47:54;1282.50;;;999.90;;
14734;SDS011;7458;49.002;8.472;2023-06-04T04:50:20;1328.10;;;999.90;;
14734;SDS011;7458;49.002;8.472;2023-06-04T04:52:46;1288.07;;;999.90;;
14734;SDS011;7458;49.002;8.472;2023-06-04T04:55:12;1283.53;;;999.90;;
14734;SDS011;7458;49.002;8.472;2023-06-04T04:57:38;1289.78;;;999.90;;
14734;SDS011;7458;49.002;8.472;2023-06-04T05:00:04;1311.25;;;999.90;;
14734;SDS011;7458;49.002;8.472;2023-06-04T05:02:32;1321.28;;;999.90;;
14734;SDS011;7458;49.002;8.472;2023-06-04T05:04:59;1267.13;;;999.90;;
14734;SDS011;7458;49.002;8.472;2023-06-04T05:07:25;1249.30;;;999.90;;
14734;SDS011;7458;49.002;8.472;2023-06-04T05:09:51;1307.05;;;999.90;;
14734;SDS011;7458;49.002;8.472;2023-06-04T05:12:17;1304.90;;;999.90;;
14734;SDS011;7458;49.002;8.472;2023-06-04T05:14:43;1291.88;;;999.90;;
14734;SDS011;7458;49.002;8.472;2023-06-04T05:17:10;1254.72;;;999.90;;
14734;SDS011;7458;49.002;8.472;2023-06-04T05:19:37;1230.88;;;999.90;;
14734;SDS011;7458;49.002;8.472;2023-06-04T05:22:04;1295.82;;;999.90;;
14734;SDS011;7458;49.002;8.472;2023-06-04T05:24:30;1283.32;;;999.90;;
14734;SDS011;7458;49.002;8.472;2023-06-04T05:26:57;1305.50;;;999.90;;
14734;SDS011;7458;49.002;8.472;2023-06-04T05:29:23;1293.60;;;999.90;;
14734;SDS011;7458;49.002;8.472;2023-06-04T05:31:49;1307.40;;;999.90;;
14734;SDS011;7458;49.002;8.472;2023-06-04T05:34:15;1301.07;;;999.90;;
14734;SDS011;7458;49.002;8.472;2023-06-04T05:36:41;1252.97;;;999.90;;
14734;SDS011;7458;49.002;8.472;2023-06-04T05:39:08;1296.80;;;999.90;;
14734;SDS011;7458;49.002;8.472;2023-06-04T05:41:37;1244.88;;;999.90;;
14734;SDS011;7458;49.002;8.472;2023-06-04T05:44:03;1312.18;;;999.90;;
14734;SDS011;7458;49.002;8.472;2023-06-04T05:46:29;1249.30;;;999.90;;
14734;SDS011;7458;49.002;8.472;2023-06-04T05:48:54;1251.45;;;999.90;;
14734;SDS011;7458;49.002;8.472;2023-06-04T05:51:20;1306.63;;;999.90;;
14734;SDS011;7458;49.002;8.472;2023-06-04T05:53:46;1248.55;;;999.90;;
14734;SDS011;7458;49.002;8.472;2023-06-04T05:56:12;1253.15;;;999.90;;
14734;SDS011;7458;49.002;8.472;2023-06-04T05:58:38;1304.85;;;999.90;;
14734;SDS011;7458;49.002;8.472;2023-06-04T06:01:04;1255.80;;;999.90;;
14734;SDS011;7458;49.002;8.472;2023-06-04T06:03:31;1317.53;;;999.90;;
14734;SDS011;7458;49.002;8.472;2023-06-04T06:05:57;1320.32;;;999.90;;
14734;SDS011;7458;49.002;8.472;2023-06-04T06:08:25;1264.95;;;999.90;;
14734;SDS011;7458;49.002;8.472;2023-06-04T06:10:50;1247.50;;;999.90;;
14734;SDS011;7458;49.002;8.472;2023-06-04T06:13:16;1268.88;;;999.90;;
14734;SDS011;7458;49.002;8.472;2023-06-04T06:15:42;1272.95;;;999.90;;
14734;SDS011;7458;49.002;8.472;2023-06-04T06:18:08;1268.57;;;999.90;;
14734;SDS011;7458;49.002;8.472;2023-06-04T06:20:34;1284.05;;;999.90;;
14734;SDS011;7458;49.002;8.472;2023-06-04T06:23:06;1359.45;;;999.90;;
14734;SDS011;7458;49.002;8.472;2023-06-04T06:25:32;1359.43;;;999.90;;
14734;SDS011;7458;49.002;8.472;2023-06-04T06:27:58;1368.72;;;999.90;;
14734;SDS011;7458;49.002;8.472;2023-06-04T06:30:24;1352.05;;;999.90;;
14734;SDS011;7458;49.002;8.472;2023-06-04T06:32:50;1322.25;;;999.90;;
14734;SDS011;7458;49.002;8.472;2023-06-04T06:35:16;1422.03;;;999.90;;
14734;SDS011;7458;49.002;8.472;2023-06-04T06:37:42;1347.10;;;999.90;;
14734;SDS011;7458;49.002;8.472;2023-06-04T06:40:09;1346.10;;;999.90;;
14734;SDS011;7458;49.002;8.472;2023-06-04T06:42:35;1298.60;;;999.90;;
14734;SDS011;7458;49.002;8.472;2023-06-04T06:45:01;1429.15;;;999.90;;
14734;SDS011;7458;49.002;8.472;2023-06-04T06:47:27;1369.78;;;999.90;;
14734;SDS011;7458;49.002;8.472;2023-06-04T06:49:53;1215.70;;;999.90;;
14734;SDS011;7458;49.002;8.472;2023-06-04T06:52:19;1191.25;;;999.90;;
14734;SDS011;7458;49.002;8.472;2023-06-04T06:54:45;1077.38;;;999.90;;
14734;SDS011;7458;49.002;8.472;2023-06-04T06:57:11;885.88;;;828.72;;
14734;SDS011;7458;49.002;8.472;2023-06-04T06:59:38;780.92;;;727.30;;
14734;SDS011;7458;49.002;8.472;2023-06-04T07:02:04;772.03;;;714.03;;
14734;SDS011;7458;49.002;8.472;2023-06-04T07:04:31;909.60;;;852.53;;
14734;SDS011;7458;49.002;8.472;2023-06-04T07:06:57;869.55;;;808.13;;
14734;SDS011;7458;49.002;8.472;2023-06-04T07:09:22;765.50;;;712.47;;
14734;SDS011;7458;49.002;8.472;2023-06-04T07:11:48;747.60;;;691.03;;
14734;SDS011;7458;49.002;8.472;2023-06-04T07:14:14;754.45;;;697.55;;
14734;SDS011;7458;49.002;8.472;2023-06-04T07:16:40;824.63;;;769.70;;
14734;SDS011;7458;49.002;8.472;2023-06-04T07:19:07;872.70;;;816.47;;
14734;SDS011;7458;49.002;8.472;2023-06-04T07:21:32;919.13;;;855.92;;
14734;SDS011;7458;49.002;8.472;2023-06-04T07:23:58;875.45;;;819.10;;
14734;SDS011;7458;49.002;8.472;2023-06-04T07:26:24;1088.78;;;999.90;;
14734;SDS011;7458;49.002;8.472;2023-06-04T07:28:50;1144.20;;;999.90;;
14734;SDS011;7458;49.002;8.472;2023-06-04T07:31:16;1232.20;;;999.90;;
14734;SDS011;7458;49.002;8.472;2023-06-04T07:33:42;1298.30;;;999.90;;
14734;SDS011;7458;49.002;8.472;2023-06-04T07:36:17;1217.93;;;999.90;;
14734;SDS011;7458;49.002;8.472;2023-06-04T07:38:43;1173.28;;;999.90;;
14734;SDS011;7458;49.002;8.472;2023-06-04T07:41:09;1197.03;;;999.90;;
14734;SDS011;7458;49.002;8.472;2023-06-04T07:43:36;1222.15;;;999.90;;
14734;SDS011;7458;49.002;8.472;2023-06-04T07:46:02;1345.57;;;999.90;;
14734;SDS011;7458;49.002;8.472;2023-06-04T07:48:32;1253.57;;;999.90;;
14734;SDS011;7458;49.002;8.472;2023-06-04T07:50:58;1396.25;;;999.90;;
14734;SDS011;7458;49.002;8.472;2023-06-04T07:53:28;1435.07;;;999.90;;
14734;SDS011;7458;49.002;8.472;2023-06-04T07:55:54;1423.07;;;999.90;;
14734;SDS011;7458;49.002;8.472;2023-06-04T07:58:24;1420.47;;;999.90;;
14734;SDS011;7458;49.002;8.472;2023-06-04T08:00:50;1447.63;;;999.90;;
14734;SDS011;7458;49.002;8.472;2023-06-04T08:03:15;1432.70;;;999.90;;
14734;SDS011;7458;49.002;8.472;2023-06-04T08:05:41;1420.70;;;999.90;;
14734;SDS011;7458;49.002;8.472;2023-06-04T08:08:07;1438.25;;;999.90;;
14734;SDS011;7458;49.002;8.472;2023-06-04T08:10:33;1446.20;;;999.90;;
14734;SDS011;7458;49.002;8.472;2023-06-04T08:12:59;1437.00;;;999.90;;
14734;SDS011;7458;49.002;8.472;2023-06-04T08:15:25;1423.68;;;999.90;;
14734;SDS011;7458;49.002;8.472;2023-06-04T08:17:51;1346.70;;;999.90;;
14734;SDS011;7458;49.002;8.472;2023-06-04T08:20:16;1347.80;;;999.90;;
14734;SDS011;7458;49.002;8.472;2023-06-04T08:22:42;1341.63;;;999.90;;
14734;SDS011;7458;49.002;8.472;2023-06-04T08:25:08;1421.80;;;999.90;;
14734;SDS011;7458;49.002;8.472;2023-06-04T08:27:34;1414.10;;;999.90;;
14734;SDS011;7458;49.002;8.472;2023-06-04T08:30:00;1326.25;;;999.90;;
14734;SDS011;7458;49.002;8.472;2023-06-04T08:32:27;1406.28;;;999.90;;
14734;SDS011;7458;49.002;8.472;2023-06-04T08:34:52;1402.30;;;999.90;;
14734;SDS011;7458;49.002;8.472;2023-06-04T08:37:19;1397.50;;;999.90;;
14734;SDS011;7458;49.002;8.472;2023-06-04T08:39:45;1392.88;;;999.90;;
14734;SDS011;7458;49.002;8.472;2023-06-04T08:42:15;1385.78;;;999.90;;
14734;SDS011;7458;49.002;8.472;2023-06-04T08:44:50;1384.45;;;999.90;;
14734;SDS011;7458;49.002;8.472;2023-06-04T08:47:17;1380.32;;;999.90;;
14734;SDS011;7458;49.002;8.472;2023-06-04T08:49:47;1295.97;;;999.90;;
14734;SDS011;7458;49.002;8.472;2023-06-04T08:52:16;1287.47;;;999.90;;
14734;SDS011;7458;49.002;8.472;2023-06-04T08:54:42;1377.63;;;999.90;;
14734;SDS011;7458;49.002;8.472;2023-06-04T08:57:08;1285.82;;;999.90;;
14734;SDS011;7458;49.002;8.472;2023-06-04T08:59:35;1316.22;;;999.90;;
14734;SDS011;7458;49.002;8.472;2023-06-04T09:02:01;1280.47;;;999.90;;
14734;SDS011;7458;49.002;8.472;2023-06-04T09:04:29;1305.20;;;999.90;;
14734;SDS011;7458;49.002;8.472;2023-06-04T09:06:58;1399.03;;;999.90;;
14734;SDS011;7458;49.002;8.472;2023-06-04T09:09:28;1307.22;;;999.90;;
14734;SDS011;7458;49.002;8.472;2023-06-04T09:11:56;1436.55;;;999.90;;
14734;SDS011;7458;49.002;8.472;2023-06-04T09:14:22;1310.75;;;999.90;;
14734;SDS011;7458;49.002;8.472;2023-06-04T09:16:49;1398.43;;;999.90;;
14734;SDS011;7458;49.002;8.472;2023-06-04T09:19:17;1404.38;;;999.90;;
14734;SDS011;7458;49.002;8.472;2023-06-04T09:24:22;1304.07;;;999.90;;
14734;SDS011;7458;49.002;8.472;2023-06-04T09:27:11;1311.40;;;999.90;;
14734;SDS011;7458;49.002;8.472;2023-06-04T09:29:53;1316.18;;;999.90;;
14734;SDS011;7458;49.002;8.472;2023-06-04T09:32:30;1406.40;;;999.90;;
14734;SDS011;7458;49.002;8.472;2023-06-04T09:35:07;1332.72;;;999.90;;
14734;SDS011;7458;49.002;8.472;2023-06-04T09:37:35;1319.00;;;999.90;;
14734;SDS011;7458;49.002;8.472;2023-06-04T09:40:01;1314.32;;;999.90;;
14734;SDS011;7458;49.002;8.472;2023-06-04T09:42:30;1313.35;;;999.90;;
14734;SDS011;7458;49.002;8.472;2023-06-04T09:45:06;1309.13;;;999.90;;
14734;SDS011;7458;49.002;8.472;2023-06-04T09:47:42;1387.82;;;999.90;;
14734;SDS011;7458;49.002;8.472;2023-06-04T09:50:11;1306.13;;;999.90;;
14734;SDS011;7458;49.002;8.472;2023-06-04T09:52:38;1383.40;;;999.90;;
14734;SDS011;7458;49.002;8.472;2023-06-04T09:55:26;1304.78;;;999.90;;
14734;SDS011;7458;49.002;8.472;2023-06-04T09:57:52;1299.05;;;999.90;;
14734;SDS011;7458;49.002;8.472;2023-06-04T10:00:19;1303.18;;;999.90;;
14734;SDS011;7458;49.002;8.472;2023-06-04T10:02:47;1382.85;;;999.90;;
14734;SDS011;7458;49.002;8.472;2023-06-04T10:05:14;1383.80;;;999.90;;
14734;SDS011;7458;49.002;8.472;2023-06-04T10:07:42;1381.25;;;999.90;;
14734;SDS011;7458;49.002;8.472;2023-06-04T10:10:15;1290.95;;;999.90;;
14734;SDS011;7458;49.002;8.472;2023-06-04T10:12:45;1294.25;;;999.90;;
14734;SDS011;7458;49.002;8.472;2023-06-04T10:15:24;1373.40;;;999.90;;
14734;SDS011;7458;49.002;8.472;2023-06-04T10:17:50;1370.25;;;999.90;;
14734;SDS011;7458;49.002;8.472;2023-06-04T10:20:19;1289.60;;;999.90;;
14734;SDS011;7458;49.002;8.472;2023-06-04T10:22:46;1283.00;;;999.90;;
14734;SDS011;7458;49.002;8.472;2023-06-04T10:25:14;1382.10;;;999.90;;
14734;SDS011;7458;49.002;8.472;2023-06-04T10:27:42;1292.03;;;999.90;;
14734;SDS011;7458;49.002;8.472;2023-06-04T10:30:08;1292.93;;;999.90;;
14734;SDS011;7458;49.002;8.472;2023-06-04T10:32:35;1291.78;;;999.90;;
14734;SDS011;7458;49.002;8.472;2023-06-04T10:35:04;1372.57;;;999.90;;
14734;SDS011;7458;49.002;8.472;2023-06-04T10:37:32;1381.65;;;999.90;;
14734;SDS011;7458;49.002;8.472;2023-06-04T10:39:58;1293.43;;;999.90;;
14734;SDS011;7458;49.002;8.472;2023-06-04T10:42:24;1283.03;;;999.90;;
14734;SDS011;7458;49.002;8.472;2023-06-04T10:44:52;1282.93;;;999.90;;
14734;SDS011;7458;49.002;8.472;2023-06-04T10:47:24;1298.10;;;999.90;;
14734;SDS011;7458;49.002;8.472;2023-06-04T10:49:52;1296.50;;;999.90;;
14734;SDS011;7458;49.002;8.472;2023-06-04T10:52:20;1376.20;;;999.90;;
14734;SDS011;7458;49.002;8.472;2023-06-04T10:54:47;1287.75;;;999.90;;
14734;SDS011;7458;49.002;8.472;2023-06-04T10:57:18;1290.43;;;999.90;;
14734;SDS011;7458;49.002;8.472;2023-06-04T10:59:54;1290.80;;;999.90;;
14734;SDS011;7458;49.002;8.472;2023-06-04T11:02:24;1281.15;;;999.90;;
14734;SDS011;7458;49.002;8.472;2023-06-04T11:05:00;1276.15;;;999.90;;
14734;SDS011;7458;49.002;8.472;2023-06-04T11:07:40;1268.30;;;999.90;;
14734;SDS011;7458;49.002;8.472;2023-06-04T11:10:09;1365.10;;;999.90;;
14734;SDS011;7458;49.002;8.472;2023-06-04T11:12:46;1281.28;;;999.90;;
14734;SDS011;7458;49.002;8.472;2023-06-04T11:15:15;1297.20;;;999.90;;
14734;SDS011;7458;49.002;8.472;2023-06-04T11:17:51;1386.05;;;999.90;;
14734;SDS011;7458;49.002;8.472;2023-06-04T11:20:20;1367.82;;;999.90;;
14734;SDS011;7458;49.002;8.472;2023-06-04T11:23:05;1298.43;;;999.90;;
14734;SDS011;7458;49.002;8.472;2023-06-04T11:25:31;1345.05;;;999.90;;
14734;SDS011;7458;49.002;8.472;2023-06-04T11:27:58;1286.50;;;999.90;;
14734;SDS011;7458;49.002;8.472;2023-06-04T11:30:26;1239.63;;;999.90;;
14734;SDS011;7458;49.002;8.472;2023-06-04T11:33:04;1349.80;;;999.90;;
14734;SDS011;7458;49.002;8.472;2023-06-04T11:35:31;1248.28;;;999.90;;
14734;SDS011;7458;49.002;8.472;2023-06-04T11:38:06;1340.38;;;999.90;;
14734;SDS011;7458;49.002;8.472;2023-06-04T11:40:35;1336.88;;;999.90;;
14734;SDS011;7458;49.002;8.472;2023-06-04T11:43:01;1334.20;;;999.90;;
14734;SDS011;7458;49.002;8.472;2023-06-04T11:45:27;1227.07;;;999.90;;
14734;SDS011;7458;49.002;8.472;2023-06-04T11:47:56;1322.10;;;999.90;;
14734;SDS011;7458;49.002;8.472;2023-06-04T11:50:23;1226.63;;;999.90;;
14734;SDS011;7458;49.002;8.472;2023-06-04T11:52:53;1318.93;;;999.90;;
14734;SDS011;7458;49.002;8.472;2023-06-04T11:55:20;1314.28;;;999.90;;
14734;SDS011;7458;49.002;8.472;2023-06-04T11:57:46;1325.93;;;999.90;;
14734;SDS011;7458;49.002;8.472;2023-06-04T12:00:14;1334.53;;;999.90;;
14734;SDS011;7458;49.002;8.472;2023-06-04T12:05:34;1237.30;;;999.90;;
14734;SDS011;7458;49.002;8.472;2023-06-04T12:08:04;1321.90;;;999.90;;
14734;SDS011;7458;49.002;8.472;2023-06-04T12:10:36;1306.97;;;999.90;;
14734;SDS011;7458;49.002;8.472;2023-06-04T12:13:07;1310.57;;;999.90;;
14734;SDS011;7458;49.002;8.472;2023-06-04T12:15:34;1189.88;;;999.90;;
14734;SDS011;7458;49.002;8.472;2023-06-04T12:18:00;1285.90;;;999.90;;
14734;SDS011;7458;49.002;8.472;2023-06-04T12:20:35;1296.75;;;999.90;;
14734;SDS011;7458;49.002;8.472;2023-06-04T12:23:06;1195.82;;;999.90;;
14734;SDS011;7458;49.002;8.472;2023-06-04T12:25:33;1298.57;;;999.90;;
14734;SDS011;7458;49.002;8.472;2023-06-04T12:28:02;1302.72;;;999.90;;
14734;SDS011;7458;49.002;8.472;2023-06-04T12:30:35;1181.85;;;997.80;;
14734;SDS011;7458;49.002;8.472;2023-06-04T12:33:03;1188.75;;;994.85;;
14734;SDS011;7458;49.002;8.472;2023-06-04T12:35:29;1193.97;;;999.90;;
14734;SDS011;7458;49.002;8.472;2023-06-04T12:37:55;1288.90;;;999.90;;
14734;SDS011;7458;49.002;8.472;2023-06-04T12:40:21;1197.07;;;999.90;;
14734;SDS011;7458;49.002;8.472;2023-06-04T12:42:49;1193.32;;;999.55;;
14734;SDS011;7458;49.002;8.472;2023-06-04T12:45:16;1198.63;;;993.78;;
14734;SDS011;7458;49.002;8.472;2023-06-04T12:47:42;1255.15;;;999.90;;
14734;SDS011;7458;49.002;8.472;2023-06-04T12:50:08;1202.95;;;999.90;;
14734;SDS011;7458;49.002;8.472;2023-06-04T12:52:35;1204.72;;;991.88;;
14734;SDS011;7458;49.002;8.472;2023-06-04T12:55:01;1289.15;;;999.90;;
14734;SDS011;7458;49.002;8.472;2023-06-04T12:57:26;1198.40;;;999.90;;
14734;SDS011;7458;49.002;8.472;2023-06-04T12:59:53;1302.45;;;999.90;;
14734;SDS011;7458;49.002;8.472;2023-06-04T13:02:18;1308.78;;;999.90;;
14734;SDS011;7458;49.002;8.472;2023-06-04T13:04:44;1301.65;;;999.90;;
14734;SDS011;7458;49.002;8.472;2023-06-04T13:07:11;1280.20;;;999.90;;
14734;SDS011;7458;49.002;8.472;2023-06-04T13:09:37;1262.85;;;999.90;;
14734;SDS011;7458;49.002;8.472;2023-06-04T13:12:02;1204.57;;;999.90;;
14734;SDS011;7458;49.002;8.472;2023-06-04T13:14:30;1191.50;;;999.90;;
14734;SDS011;7458;49.002;8.472;2023-06-04T13:16:58;1186.32;;;999.90;;
14734;SDS011;7458;49.002;8.472;2023-06-04T13:19:25;1403.05;;;999.90;;
14734;SDS011;7458;49.002;8.472;2023-06-04T13:21:50;1340.55;;;999.90;;
14734;SDS011;7458;49.002;8.472;2023-06-04T13:24:16;1342.85;;;999.90;;
14734;SDS011;7458;49.002;8.472;2023-06-04T13:26:42;1415.25;;;999.90;;
14734;SDS011;7458;49.002;8.472;2023-06-04T13:29:08;1257.47;;;999.90;;
14734;SDS011;7458;49.002;8.472;2023-06-04T13:31:33;1357.25;;;999.90;;
14734;SDS011;7458;49.002;8.472;2023-06-04T13:33:59;1360.35;;;999.90;;
14734;SDS011;7458;49.002;8.472;2023-06-04T13:36:25;1324.45;;;999.90;;
14734;SDS011;7458;49.002;8.472;2023-06-04T13:38:51;1199.55;;;999.90;;
14734;SDS011;7458;49.002;8.472;2023-06-04T13:41:19;1174.78;;;999.90;;
14734;SDS011;7458;49.002;8.472;2023-06-04T13:43:46;1131.93;;;999.90;;
14734;SDS011;7458;49.002;8.472;2023-06-04T13:46:11;1127.05;;;999.90;;
14734;SDS011;7458;49.002;8.472;2023-06-04T13:48:37;1120.90;;;999.90;;
14734;SDS011;7458;49.002;8.472;2023-06-04T13:51:03;1241.82;;;999.90;;
14734;SDS011;7458;49.002;8.472;2023-06-04T13:53:28;1241.05;;;999.90;;
14734;SDS011;7458;49.002;8.472;2023-06-04T13:55:54;1114.28;;;999.90;;
14734;SDS011;7458;49.002;8.472;2023-06-04T13:58:24;1221.57;;;999.90;;
14734;SDS011;7458;49.002;8.472;2023-06-04T14:00:51;1106.82;;;999.90;;
14734;SDS011;7458;49.002;8.472;2023-06-04T14:03:17;1066.45;;;999.90;;
14734;SDS011;7458;49.002;8.472;2023-06-04T14:05:42;1138.18;;;999.90;;
14734;SDS011;7458;49.002;8.472;2023-06-04T14:08:08;1089.53;;;999.90;;
14734;SDS011;7458;49.002;8.472;2023-06-04T14:10:34;1004.92;;;945.72;;